sensor_id;sensor_type;location;lat;lon;timestamp;temperature;humidity
20858;DHT22;10589;53.636;10.012;2023-05-08T03:47:02;7.60;99.90
20858;DHT22;10589;53.636;10.012;2023-05-08T03:49:30;7.60;99.90
20858;DHT22;10589;53.636;10.012;2023-05-08T03:51:55;7.60;99.90
20858;DHT22;10589;53.636;10.012;2023-05-08T03:54:21;7.60;99.90
20858;DHT22;10589;53.636;10.012;2023-05-08T03:56:51;7.60;99.90
20858;DHT22;10589;53.636;10.012;2023-05-08T03:59:28;7.60;99.90
20858;DHT22;10589;53.636;10.012;2023-05-08T04:02:08;7.60;99.90
20858;DHT22;10589;53.636;10.012;2023-05-08T04:04:43;7.60;99.90
20858;DHT22;10589;53.636;10.012;2023-05-08T04:07:27;7.60;99.90
20858;DHT22;10589;53.636;10.012;2023-05-08T04:15:43;7.70;99.90
20858;DHT22;10589;53.636;10.012;2023-05-08T04:18:16;7.70;99.90
20858;DHT22;10589;53.636;10.012;2023-05-08T04:20:46;7.70;99.90
20858;DHT22;10589;53.636;10.012;2023-05-08T04:23:16;7.70;99.90
20858;DHT22;10589;53.636;10.012;2023-05-08T04:25:43;7.70;99.90
20858;DHT22;10589;53.636;10.012;2023-05-08T04:28:11;7.70;99.90
20858;DHT22;10589;53.636;10.012;2023-05-08T04:30:37;7.80;99.90
20858;DHT22;10589;53.636;10.012;2023-05-08T04:33:03;7.80;99.90
20858;DHT22;10589;53.636;10.012;2023-05-08T04:35:31;7.80;99.90
20858;DHT22;10589;53.636;10.012;2023-05-08T04:37:57;7.90;99.90
20858;DHT22;10589;53.636;10.012;2023-05-08T04:40:24;7.90;99.90
20858;DHT22;10589;53.636;10.012;2023-05-08T04:42:49;7.90;99.90
20858;DHT22;10589;53.636;10.012;2023-05-08T04:45:15;7.90;99.90
20858;DHT22;10589;53.636;10.012;2023-05-08T04:47:41;8.00;99.90
20858;DHT22;10589;53.636;10.012;2023-05-08T04:50:06;8.00;99.90
20858;DHT22;10589;53.636;10.012;2023-05-08T04:52:32;8.10;99.90
20858;DHT22;10589;53.636;10.012;2023-05-08T04:54:58;8.10;99.90
20858;DHT22;10589;53.636;10.012;2023-05-08T04:57:25;8.20;99.90
20858;DHT22;10589;53.636;10.012;2023-05-08T04:59:51;8.20;99.90
20858;DHT22;10589;53.636;10.012;2023-05-08T05:02:17;8.30;99.90
20858;DHT22;10589;53.636;10.012;2023-05-08T05:04:42;8.30;99.90
20858;DHT22;10589;53.636;10.012;2023-05-08T05:07:08;8.30;99.90
20858;DHT22;10589;53.636;10.012;2023-05-08T05:09:34;8.40;99.90
20858;DHT22;10589;53.636;10.012;2023-05-08T05:12:02;8.40;99.90
20858;DHT22;10589;53.636;10.012;2023-05-08T05:14:28;8.50;99.90
20858;DHT22;10589;53.636;10.012;2023-05-08T05:16:54;8.50;99.90
20858;DHT22;10589;53.636;10.012;2023-05-08T05:19:19;8.60;99.90
20858;DHT22;10589;53.636;10.012;2023-05-08T05:21:45;8.60;99.90
20858;DHT22;10589;53.636;10.012;2023-05-08T05:24:11;8.70;99.90
20858;DHT22;10589;53.636;10.012;2023-05-08T05:26:36;8.70;99.90
20858;DHT22;10589;53.636;10.012;2023-05-08T05:29:02;8.80;99.90
20858;DHT22;10589;53.636;10.012;2023-05-08T05:31:28;8.80;99.90
20858;DHT22;10589;53.636;10.012;2023-05-08T05:33:54;8.80;99.90
20858;DHT22;10589;53.636;10.012;2023-05-08T05:36:20;8.80;99.90
20858;DHT22;10589;53.636;10.012;2023-05-08T05:38:46;8.80;99.90
20858;DHT22;10589;53.636;10.012;2023-05-08T05:41:12;8.90;99.90
20858;DHT22;10589;53.636;10.012;2023-05-08T05:43:37;9.00;99.90
20858;DHT22;10589;53.636;10.012;2023-05-08T05:46:04;9.00;99.90
20858;DHT22;10589;53.636;10.012;2023-05-08T05:48:30;9.10;99.90
20858;DHT22;10589;53.636;10.012;2023-05-08T05:50:56;9.10;99.90
20858;DHT22;10589;53.636;10.012;2023-05-08T05:53:22;9.10;99.90
20858;DHT22;10589;53.636;10.012;2023-05-08T05:55:47;9.10;99.90
20858;DHT22;10589;53.636;10.012;2023-05-08T05:58:13;9.20;99.90
20858;DHT22;10589;53.636;10.012;2023-05-08T06:00:40;9.30;99.90
20858;DHT22;10589;53.636;10.012;2023-05-08T06:03:05;9.30;99.90
20858;DHT22;10589;53.636;10.012;2023-05-08T06:05:31;9.30;99.90
20858;DHT22;10589;53.636;10.012;2023-05-08T06:07:57;9.30;99.90
20858;DHT22;10589;53.636;10.012;2023-05-08T06:10:22;9.40;99.90
20858;DHT22;10589;53.636;10.012;2023-05-08T06:12:48;9.40;99.90
20858;DHT22;10589;53.636;10.012;2023-05-08T06:15:13;9.50;99.90
20858;DHT22;10589;53.636;10.012;2023-05-08T06:17:40;9.50;99.90
20858;DHT22;10589;53.636;10.012;2023-05-08T06:20:06;9.50;99.90
20858;DHT22;10589;53.636;10.012;2023-05-08T06:22:32;9.60;99.90
20858;DHT22;10589;53.636;10.012;2023-05-08T06:24:58;9.60;99.90
20858;DHT22;10589;53.636;10.012;2023-05-08T06:27:24;9.60;99.90
20858;DHT22;10589;53.636;10.012;2023-05-08T06:29:55;9.80;99.90
20858;DHT22;10589;53.636;10.012;2023-05-08T06:32:21;9.90;99.90
20858;DHT22;10589;53.636;10.012;2023-05-08T06:34:47;10.00;99.90
20858;DHT22;10589;53.636;10.012;2023-05-08T06:37:12;10.00;99.90
20858;DHT22;10589;53.636;10.012;2023-05-08T06:39:38;10.00;99.90
20858;DHT22;10589;53.636;10.012;2023-05-08T06:42:04;10.10;99.90
20858;DHT22;10589;53.636;10.012;2023-05-08T06:44:32;10.20;99.90
20858;DHT22;10589;53.636;10.012;2023-05-08T06:46:58;10.20;99.90
20858;DHT22;10589;53.636;10.012;2023-05-08T06:49:24;10.30;99.90
20858;DHT22;10589;53.636;10.012;2023-05-08T06:51:49;10.40;99.90
20858;DHT22;10589;53.636;10.012;2023-05-08T06:54:15;10.40;99.90
20858;DHT22;10589;53.636;10.012;2023-05-08T06:56:41;10.50;99.90
20858;DHT22;10589;53.636;10.012;2023-05-08T06:59:07;10.70;99.90
20858;DHT22;10589;53.636;10.012;2023-05-08T07:01:33;10.70;99.90
20858;DHT22;10589;53.636;10.012;2023-05-08T07:03:59;10.70;99.90
20858;DHT22;10589;53.636;10.012;2023-05-08T07:06:25;10.90;99.90
20858;DHT22;10589;53.636;10.012;2023-05-08T07:08:52;10.90;99.90
20858;DHT22;10589;53.636;10.012;2023-05-08T07:11:17;10.90;99.90
20858;DHT22;10589;53.636;10.012;2023-05-08T07:13:43;10.90;99.90
20858;DHT22;10589;53.636;10.012;2023-05-08T07:16:11;11.00;99.90
20858;DHT22;10589;53.636;10.012;2023-05-08T07:18:38;11.20;99.90
20858;DHT22;10589;53.636;10.012;2023-05-08T07:21:04;11.30;99.90
20858;DHT22;10589;53.636;10.012;2023-05-08T07:23:29;11.40;99.90
20858;DHT22;10589;53.636;10.012;2023-05-08T07:25:55;11.50;99.90
20858;DHT22;10589;53.636;10.012;2023-05-08T07:28:22;11.50;99.90
20858;DHT22;10589;53.636;10.012;2023-05-08T07:30:47;11.50;99.90
20858;DHT22;10589;53.636;10.012;2023-05-08T07:33:13;11.50;99.90
20858;DHT22;10589;53.636;10.012;2023-05-08T07:35:39;11.50;99.90
20858;DHT22;10589;53.636;10.012;2023-05-08T07:38:05;11.50;99.90
20858;DHT22;10589;53.636;10.012;2023-05-08T07:40:31;11.60;99.90
20858;DHT22;10589;53.636;10.012;2023-05-08T07:42:56;11.70;99.90
20858;DHT22;10589;53.636;10.012;2023-05-08T07:45:22;11.90;99.90
20858;DHT22;10589;53.636;10.012;2023-05-08T07:47:54;11.90;99.90
20858;DHT22;10589;53.636;10.012;2023-05-08T07:50:20;12.10;99.90
20858;DHT22;10589;53.636;10.012;2023-05-08T07:52:46;12.20;99.90
20858;DHT22;10589;53.636;10.012;2023-05-08T07:55:12;12.40;99.90
20858;DHT22;10589;53.636;10.012;2023-05-08T07:57:39;12.50;99.90
20858;DHT22;10589;53.636;10.012;2023-05-08T08:00:10;12.60;99.90
20858;DHT22;10589;53.636;10.012;2023-05-08T08:02:36;12.50;99.90
20858;DHT22;10589;53.636;10.012;2023-05-08T08:05:03;12.50;99.90
20858;DHT22;10589;53.636;10.012;2023-05-08T08:07:31;12.70;99.90
20858;DHT22;10589;53.636;10.012;2023-05-08T08:09:57;12.80;99.90
20858;DHT22;10589;53.636;10.012;2023-05-08T08:12:23;12.80;99.90
20858;DHT22;10589;53.636;10.012;2023-05-08T08:14:49;13.00;99.90
20858;DHT22;10589;53.636;10.012;2023-05-08T08:17:14;13.10;99.90
20858;DHT22;10589;53.636;10.012;2023-05-08T08:19:40;13.10;99.90
20858;DHT22;10589;53.636;10.012;2023-05-08T08:22:05;13.20;99.90
20858;DHT22;10589;53.636;10.012;2023-05-08T08:24:31;13.30;99.90
20858;DHT22;10589;53.636;10.012;2023-05-08T08:26:57;13.30;99.90
20858;DHT22;10589;53.636;10.012;2023-05-08T08:29:22;13.60;99.90
20858;DHT22;10589;53.636;10.012;2023-05-08T08:31:48;13.60;99.90
20858;DHT22;10589;53.636;10.012;2023-05-08T08:34:14;13.50;99.90
20858;DHT22;10589;53.636;10.012;2023-05-08T08:36:39;13.70;99.90
20858;DHT22;10589;53.636;10.012;2023-05-08T08:39:05;13.70;99.90
20858;DHT22;10589;53.636;10.012;2023-05-08T08:41:31;13.80;99.90
20858;DHT22;10589;53.636;10.012;2023-05-08T08:43:57;13.80;99.90
20858;DHT22;10589;53.636;10.012;2023-05-08T08:46:24;13.90;99.90
20858;DHT22;10589;53.636;10.012;2023-05-08T08:48:53;14.20;99.90
20858;DHT22;10589;53.636;10.012;2023-05-08T08:51:26;14.40;99.90
20858;DHT22;10589;53.636;10.012;2023-05-08T08:54:06;14.50;99.90
20858;DHT22;10589;53.636;10.012;2023-05-08T08:56:38;14.70;99.90
20858;DHT22;10589;53.636;10.012;2023-05-08T08:59:05;14.70;99.90
20858;DHT22;10589;53.636;10.012;2023-05-08T09:01:34;14.70;99.90
20858;DHT22;10589;53.636;10.012;2023-05-08T09:04:02;14.40;99.90
20858;DHT22;10589;53.636;10.012;2023-05-08T09:06:29;14.30;99.90
20858;DHT22;10589;53.636;10.012;2023-05-08T09:08:56;14.10;99.90
20858;DHT22;10589;53.636;10.012;2023-05-08T09:11:24;14.10;99.90
20858;DHT22;10589;53.636;10.012;2023-05-08T09:13:50;14.10;99.90
20858;DHT22;10589;53.636;10.012;2023-05-08T09:16:16;14.20;99.90
20858;DHT22;10589;53.636;10.012;2023-05-08T09:18:42;14.40;99.90
20858;DHT22;10589;53.636;10.012;2023-05-08T09:21:07;14.40;99.90
20858;DHT22;10589;53.636;10.012;2023-05-08T09:23:50;14.50;99.90
20858;DHT22;10589;53.636;10.012;2023-05-08T09:26:39;14.80;99.90
20858;DHT22;10589;53.636;10.012;2023-05-08T09:29:18;14.90;99.90
20858;DHT22;10589;53.636;10.012;2023-05-08T09:31:50;15.20;99.90
20858;DHT22;10589;53.636;10.012;2023-05-08T09:34:26;15.30;99.90
20858;DHT22;10589;53.636;10.012;2023-05-08T09:37:10;15.20;99.90
20858;DHT22;10589;53.636;10.012;2023-05-08T09:39:36;15.20;99.90
20858;DHT22;10589;53.636;10.012;2023-05-08T09:42:05;15.10;99.90
20858;DHT22;10589;53.636;10.012;2023-05-08T09:44:50;15.10;99.90
20858;DHT22;10589;53.636;10.012;2023-05-08T09:47:21;14.90;99.90
20858;DHT22;10589;53.636;10.012;2023-05-08T09:50:06;15.00;99.90
20858;DHT22;10589;53.636;10.012;2023-05-08T09:52:33;14.80;99.90
20858;DHT22;10589;53.636;10.012;2023-05-08T09:55:06;14.80;99.90
20858;DHT22;10589;53.636;10.012;2023-05-08T09:57:34;14.80;99.90
20858;DHT22;10589;53.636;10.012;2023-05-08T10:00:11;14.90;99.90
20858;DHT22;10589;53.636;10.012;2023-05-08T10:02:53;14.90;99.90
20858;DHT22;10589;53.636;10.012;2023-05-08T10:05:33;15.10;99.90
20858;DHT22;10589;53.636;10.012;2023-05-08T10:08:21;15.40;99.90
20858;DHT22;10589;53.636;10.012;2023-05-08T10:10:47;15.90;99.90
20858;DHT22;10589;53.636;10.012;2023-05-08T10:13:13;16.20;99.90
20858;DHT22;10589;53.636;10.012;2023-05-08T10:15:41;16.60;99.90
20858;DHT22;10589;53.636;10.012;2023-05-08T10:18:07;16.60;99.90
20858;DHT22;10589;53.636;10.012;2023-05-08T10:20:37;16.70;99.90
20858;DHT22;10589;53.636;10.012;2023-05-08T10:23:03;16.90;99.90
20858;DHT22;10589;53.636;10.012;2023-05-08T10:25:32;16.90;99.90
20858;DHT22;10589;53.636;10.012;2023-05-08T10:30:33;16.60;99.90
20858;DHT22;10589;53.636;10.012;2023-05-08T10:33:02;16.70;99.90
20858;DHT22;10589;53.636;10.012;2023-05-08T10:35:32;16.80;99.90
20858;DHT22;10589;53.636;10.012;2023-05-08T10:37:58;16.80;99.90
20858;DHT22;10589;53.636;10.012;2023-05-08T10:40:23;16.90;99.90
20858;DHT22;10589;53.636;10.012;2023-05-08T10:42:49;16.80;99.90
20858;DHT22;10589;53.636;10.012;2023-05-08T10:45:15;16.90;99.90
20858;DHT22;10589;53.636;10.012;2023-05-08T10:48:38;17.10;99.90
20858;DHT22;10589;53.636;10.012;2023-05-08T10:53:35;17.20;99.90
20858;DHT22;10589;53.636;10.012;2023-05-08T10:56:03;17.50;99.90
20858;DHT22;10589;53.636;10.012;2023-05-08T10:58:30;17.70;99.90
20858;DHT22;10589;53.636;10.012;2023-05-08T11:03:26;17.70;99.90
20858;DHT22;10589;53.636;10.012;2023-05-08T11:05:53;17.60;99.90
20858;DHT22;10589;53.636;10.012;2023-05-08T11:08:20;17.40;99.90
20858;DHT22;10589;53.636;10.012;2023-05-08T11:13:49;17.40;99.90
20858;DHT22;10589;53.636;10.012;2023-05-08T11:16:15;17.30;99.90
20858;DHT22;10589;53.636;10.012;2023-05-08T11:19:18;17.40;99.90
20858;DHT22;10589;53.636;10.012;2023-05-08T11:24:36;17.70;99.90
20858;DHT22;10589;53.636;10.012;2023-05-08T11:27:02;17.90;99.90
20858;DHT22;10589;53.636;10.012;2023-05-08T11:29:28;18.20;99.90
20858;DHT22;10589;53.636;10.012;2023-05-08T11:31:54;18.40;99.90
20858;DHT22;10589;53.636;10.012;2023-05-08T11:37:20;18.50;99.90
20858;DHT22;10589;53.636;10.012;2023-05-08T11:39:47;18.10;99.90
20858;DHT22;10589;53.636;10.012;2023-05-08T11:45:08;18.40;99.90
20858;DHT22;10589;53.636;10.012;2023-05-08T11:47:40;18.40;99.90
20858;DHT22;10589;53.636;10.012;2023-05-08T11:50:11;18.20;99.90
20858;DHT22;10589;53.636;10.012;2023-05-08T11:52:38;18.60;99.90
20858;DHT22;10589;53.636;10.012;2023-05-08T11:55:07;18.90;99.90
20858;DHT22;10589;53.636;10.012;2023-05-08T11:57:33;18.90;99.90
20858;DHT22;10589;53.636;10.012;2023-05-08T12:00:09;19.20;99.90
20858;DHT22;10589;53.636;10.012;2023-05-08T12:02:40;19.50;99.90
20858;DHT22;10589;53.636;10.012;2023-05-08T12:05:06;19.20;99.90
20858;DHT22;10589;53.636;10.012;2023-05-08T12:07:54;19.20;99.90
20858;DHT22;10589;53.636;10.012;2023-05-08T12:10:19;19.40;99.90
20858;DHT22;10589;53.636;10.012;2023-05-08T12:12:45;19.40;99.90
20858;DHT22;10589;53.636;10.012;2023-05-08T12:15:13;19.50;99.90
20858;DHT22;10589;53.636;10.012;2023-05-08T12:17:39;19.90;99.90
20858;DHT22;10589;53.636;10.012;2023-05-08T12:20:24;19.90;99.90
20858;DHT22;10589;53.636;10.012;2023-05-08T12:22:53;20.20;99.90
20858;DHT22;10589;53.636;10.012;2023-05-08T12:25:19;20.10;99.90
20858;DHT22;10589;53.636;10.012;2023-05-08T12:27:45;20.30;99.90
20858;DHT22;10589;53.636;10.012;2023-05-08T12:30:12;20.20;99.90
20858;DHT22;10589;53.636;10.012;2023-05-08T12:32:42;20.60;99.90
20858;DHT22;10589;53.636;10.012;2023-05-08T12:35:09;21.30;99.90
20858;DHT22;10589;53.636;10.012;2023-05-08T12:37:35;21.60;99.90
20858;DHT22;10589;53.636;10.012;2023-05-08T12:40:01;22.40;99.90
20858;DHT22;10589;53.636;10.012;2023-05-08T12:42:50;22.70;99.90
20858;DHT22;10589;53.636;10.012;2023-05-08T12:45:28;23.70;99.90
20858;DHT22;10589;53.636;10.012;2023-05-08T12:48:02;24.60;99.90
20858;DHT22;10589;53.636;10.012;2023-05-08T12:50:28;25.20;99.90
20858;DHT22;10589;53.636;10.012;2023-05-08T12:53:04;25.30;99.90
20858;DHT22;10589;53.636;10.012;2023-05-08T12:55:32;24.90;99.90
20858;DHT22;10589;53.636;10.012;2023-05-08T13:03:01;24.20;99.90
20858;DHT22;10589;53.636;10.012;2023-05-08T13:05:27;24.40;99.90
20858;DHT22;10589;53.636;10.012;2023-05-08T13:07:58;25.10;98.90
20858;DHT22;10589;53.636;10.012;2023-05-08T13:10:24;26.70;98.20
20858;DHT22;10589;53.636;10.012;2023-05-08T13:12:49;27.40;96.50
20858;DHT22;10589;53.636;10.012;2023-05-08T13:15:16;27.40;96.60
20858;DHT22;10589;53.636;10.012;2023-05-08T13:17:42;26.40;94.00
20858;DHT22;10589;53.636;10.012;2023-05-08T13:20:07;26.10;94.00
20858;DHT22;10589;53.636;10.012;2023-05-08T13:22:33;25.40;95.00
20858;DHT22;10589;53.636;10.012;2023-05-08T13:24:59;24.60;94.70
20858;DHT22;10589;53.636;10.012;2023-05-08T13:27:25;24.80;95.10
20858;DHT22;10589;53.636;10.012;2023-05-08T13:29:50;25.10;95.20
20858;DHT22;10589;53.636;10.012;2023-05-08T13:32:16;26.10;94.80
20858;DHT22;10589;53.636;10.012;2023-05-08T13:34:41;26.90;94.20
20858;DHT22;10589;53.636;10.012;2023-05-08T13:37:07;26.60;94.30
20858;DHT22;10589;53.636;10.012;2023-05-08T13:39:32;26.20;94.40
20858;DHT22;10589;53.636;10.012;2023-05-08T13:42:02;25.80;92.80
20858;DHT22;10589;53.636;10.012;2023-05-08T13:44:28;25.00;93.40
20858;DHT22;10589;53.636;10.012;2023-05-08T13:46:54;23.80;94.30
20858;DHT22;10589;53.636;10.012;2023-05-08T13:49:19;23.10;94.90
20858;DHT22;10589;53.636;10.012;2023-05-08T13:51:48;22.60;95.50
20858;DHT22;10589;53.636;10.012;2023-05-08T13:54:14;23.40;94.10
20858;DHT22;10589;53.636;10.012;2023-05-08T13:56:40;24.50;93.40
20858;DHT22;10589;53.636;10.012;2023-05-08T13:59:06;25.70;93.30
20858;DHT22;10589;53.636;10.012;2023-05-08T14:01:32;26.00;93.60
20858;DHT22;10589;53.636;10.012;2023-05-08T14:03:57;26.20;93.80
20858;DHT22;10589;53.636;10.012;2023-05-08T14:06:23;26.50;92.70
20858;DHT22;10589;53.636;10.012;2023-05-08T14:08:48;26.60;93.70
20858;DHT22;10589;53.636;10.012;2023-05-08T14:11:14;26.70;92.70
20858;DHT22;10589;53.636;10.012;2023-05-08T14:13:40;27.30;91.70
20858;DHT22;10589;53.636;10.012;2023-05-08T14:16:06;26.10;91.60
20858;DHT22;10589;53.636;10.012;2023-05-08T14:18:32;25.80;90.60
20858;DHT22;10589;53.636;10.012;2023-05-08T14:20:58;25.50;90.50
20858;DHT22;10589;53.636;10.012;2023-05-08T14:23:23;26.30;92.50
20858;DHT22;10589;53.636;10.012;2023-05-08T14:25:49;25.70;90.10
20858;DHT22;10589;53.636;10.012;2023-05-08T14:28:15;25.50;90.60
20858;DHT22;10589;53.636;10.012;2023-05-08T14:30:40;25.00;91.40
20858;DHT22;10589;53.636;10.012;2023-05-08T14:33:06;25.90;91.00
20858;DHT22;10589;53.636;10.012;2023-05-08T14:35:31;25.60;91.10
20858;DHT22;10589;53.636;10.012;2023-05-08T14:37:57;25.40;91.60
20858;DHT22;10589;53.636;10.012;2023-05-08T14:40:22;26.00;91.60
20858;DHT22;10589;53.636;10.012;2023-05-08T14:42:48;25.80;90.80
20858;DHT22;10589;53.636;10.012;2023-05-08T14:45:13;25.50;91.20
20858;DHT22;10589;53.636;10.012;2023-05-08T14:47:39;25.10;90.70
20858;DHT22;10589;53.636;10.012;2023-05-08T14:50:06;24.90;91.40
20858;DHT22;10589;53.636;10.012;2023-05-08T14:52:33;24.80;90.90
20858;DHT22;10589;53.636;10.012;2023-05-08T14:54:59;24.40;91.00
20858;DHT22;10589;53.636;10.012;2023-05-08T14:57:25;24.00;91.90
20858;DHT22;10589;53.636;10.012;2023-05-08T14:59:50;23.30;91.10
20858;DHT22;10589;53.636;10.012;2023-05-08T15:02:16;22.90;91.70
20858;DHT22;10589;53.636;10.012;2023-05-08T15:04:42;22.40;92.80
20858;DHT22;10589;53.636;10.012;2023-05-08T15:07:08;22.50;92.60
20858;DHT22;10589;53.636;10.012;2023-05-08T15:09:34;22.80;91.70
20858;DHT22;10589;53.636;10.012;2023-05-08T15:11:59;23.00;91.90
20858;DHT22;10589;53.636;10.012;2023-05-08T15:14:25;22.50;92.10
20858;DHT22;10589;53.636;10.012;2023-05-08T15:16:51;22.90;92.30
20858;DHT22;10589;53.636;10.012;2023-05-08T15:19:17;22.80;91.70
20858;DHT22;10589;53.636;10.012;2023-05-08T15:21:42;23.10;91.70
20858;DHT22;10589;53.636;10.012;2023-05-08T15:24:08;23.80;91.40
20858;DHT22;10589;53.636;10.012;2023-05-08T15:26:33;24.00;90.90
20858;DHT22;10589;53.636;10.012;2023-05-08T15:28:59;23.20;90.30
20858;DHT22;10589;53.636;10.012;2023-05-08T15:31:25;22.60;91.00
20858;DHT22;10589;53.636;10.012;2023-05-08T15:33:50;22.40;91.80
20858;DHT22;10589;53.636;10.012;2023-05-08T15:36:16;22.30;91.50
20858;DHT22;10589;53.636;10.012;2023-05-08T15:38:41;22.20;91.30
20858;DHT22;10589;53.636;10.012;2023-05-08T15:41:07;22.40;91.70
20858;DHT22;10589;53.636;10.012;2023-05-08T15:43:37;22.80;92.90
20858;DHT22;10589;53.636;10.012;2023-05-08T15:46:03;23.10;90.70
20858;DHT22;10589;53.636;10.012;2023-05-08T15:48:29;23.60;91.00
20858;DHT22;10589;53.636;10.012;2023-05-08T15:50:55;24.20;89.60
20858;DHT22;10589;53.636;10.012;2023-05-08T15:53:20;24.20;88.70
20858;DHT22;10589;53.636;10.012;2023-05-08T15:55:46;24.60;89.20
20858;DHT22;10589;53.636;10.012;2023-05-08T15:58:11;25.40;90.50
20858;DHT22;10589;53.636;10.012;2023-05-08T16:00:37;25.80;85.20
20858;DHT22;10589;53.636;10.012;2023-05-08T16:03:03;26.10;85.20
20858;DHT22;10589;53.636;10.012;2023-05-08T16:05:28;26.90;84.40
20858;DHT22;10589;53.636;10.012;2023-05-08T16:07:54;27.60;84.60
20858;DHT22;10589;53.636;10.012;2023-05-08T16:10:20;28.30;84.50
20858;DHT22;10589;53.636;10.012;2023-05-08T16:12:46;27.70;80.50
20858;DHT22;10589;53.636;10.012;2023-05-08T16:15:12;27.50;82.80
20858;DHT22;10589;53.636;10.012;2023-05-08T16:17:37;28.80;88.10
20858;DHT22;10589;53.636;10.012;2023-05-08T16:20:03;29.10;80.60
20858;DHT22;10589;53.636;10.012;2023-05-08T16:22:30;29.30;79.80
20858;DHT22;10589;53.636;10.012;2023-05-08T16:24:55;29.10;79.50
20858;DHT22;10589;53.636;10.012;2023-05-08T16:27:21;28.60;77.40
20858;DHT22;10589;53.636;10.012;2023-05-08T16:29:46;28.90;76.90
20858;DHT22;10589;53.636;10.012;2023-05-08T16:32:12;28.50;76.80
20858;DHT22;10589;53.636;10.012;2023-05-08T16:34:38;27.90;75.90
20858;DHT22;10589;53.636;10.012;2023-05-08T16:37:03;27.70;76.30
20858;DHT22;10589;53.636;10.012;2023-05-08T16:39:29;27.40;76.50
20858;DHT22;10589;53.636;10.012;2023-05-08T16:41:55;27.80;77.10
20858;DHT22;10589;53.636;10.012;2023-05-08T16:44:21;27.70;77.20
20858;DHT22;10589;53.636;10.012;2023-05-08T16:46:46;27.60;77.90
20858;DHT22;10589;53.636;10.012;2023-05-08T16:49:12;28.00;76.60
20858;DHT22;10589;53.636;10.012;2023-05-08T16:51:38;28.40;75.20
20858;DHT22;10589;53.636;10.012;2023-05-08T16:54:04;27.60;74.40
20858;DHT22;10589;53.636;10.012;2023-05-08T16:56:29;27.00;75.90
20858;DHT22;10589;53.636;10.012;2023-05-08T16:58:55;27.10;75.40
20858;DHT22;10589;53.636;10.012;2023-05-08T17:01:21;26.80;74.80
20858;DHT22;10589;53.636;10.012;2023-05-08T17:03:47;26.80;76.40
20858;DHT22;10589;53.636;10.012;2023-05-08T17:06:12;26.70;75.80
20858;DHT22;10589;53.636;10.012;2023-05-08T17:08:38;26.50;76.20
20858;DHT22;10589;53.636;10.012;2023-05-08T17:11:03;25.80;75.90
20858;DHT22;10589;53.636;10.012;2023-05-08T17:13:29;24.80;76.20
20858;DHT22;10589;53.636;10.012;2023-05-08T17:15:55;23.30;78.00
20858;DHT22;10589;53.636;10.012;2023-05-08T17:18:20;22.50;81.90
20858;DHT22;10589;53.636;10.012;2023-05-08T17:20:46;21.50;81.00
20858;DHT22;10589;53.636;10.012;2023-05-08T17:23:12;21.00;82.30
20858;DHT22;10589;53.636;10.012;2023-05-08T17:25:37;20.60;84.30
20858;DHT22;10589;53.636;10.012;2023-05-08T17:28:03;20.40;84.90
20858;DHT22;10589;53.636;10.012;2023-05-08T17:30:30;20.10;85.40
20858;DHT22;10589;53.636;10.012;2023-05-08T17:32:56;19.90;87.10
20858;DHT22;10589;53.636;10.012;2023-05-08T17:35:22;19.70;84.70
20858;DHT22;10589;53.636;10.012;2023-05-08T17:37:48;19.60;85.80
20858;DHT22;10589;53.636;10.012;2023-05-08T17:40:14;19.50;86.40
20858;DHT22;10589;53.636;10.012;2023-05-08T17:42:40;19.40;87.20
20858;DHT22;10589;53.636;10.012;2023-05-08T17:45:06;19.30;87.50
20858;DHT22;10589;53.636;10.012;2023-05-08T17:47:32;19.30;88.70
20858;DHT22;10589;53.636;10.012;2023-05-08T17:49:58;19.10;88.50
20858;DHT22;10589;53.636;10.012;2023-05-08T17:52:23;19.00;86.50
20858;DHT22;10589;53.636;10.012;2023-05-08T17:54:49;18.90;85.70
20858;DHT22;10589;53.636;10.012;2023-05-08T17:57:15;18.80;86.90
20858;DHT22;10589;53.636;10.012;2023-05-08T17:59:41;18.70;87.00
20858;DHT22;10589;53.636;10.012;2023-05-08T18:02:06;18.60;87.50
20858;DHT22;10589;53.636;10.012;2023-05-08T18:04:32;18.60;87.50
20858;DHT22;10589;53.636;10.012;2023-05-08T18:06:58;18.50;86.40
20858;DHT22;10589;53.636;10.012;2023-05-08T18:09:26;18.40;88.10
20858;DHT22;10589;53.636;10.012;2023-05-08T18:11:52;18.30;87.30
20858;DHT22;10589;53.636;10.012;2023-05-08T18:14:20;18.30;88.40
20858;DHT22;10589;53.636;10.012;2023-05-08T18:16:45;18.20;87.80
20858;DHT22;10589;53.636;10.012;2023-05-08T18:19:11;18.10;87.80
20858;DHT22;10589;53.636;10.012;2023-05-08T18:21:37;18.10;88.00
20858;DHT22;10589;53.636;10.012;2023-05-08T18:24:02;18.00;90.70
20858;DHT22;10589;53.636;10.012;2023-05-08T18:26:28;17.80;90.20
20858;DHT22;10589;53.636;10.012;2023-05-08T18:28:54;17.80;91.00
20858;DHT22;10589;53.636;10.012;2023-05-08T18:31:19;17.70;90.20
20858;DHT22;10589;53.636;10.012;2023-05-08T18:33:45;17.60;90.30
20858;DHT22;10589;53.636;10.012;2023-05-08T18:36:11;17.60;90.40
20858;DHT22;10589;53.636;10.012;2023-05-08T18:38:37;17.50;90.50
20858;DHT22;10589;53.636;10.012;2023-05-08T18:41:10;17.40;90.80
20858;DHT22;10589;53.636;10.012;2023-05-08T18:43:35;17.30;90.60
20858;DHT22;10589;53.636;10.012;2023-05-08T18:46:08;17.20;91.40
20858;DHT22;10589;53.636;10.012;2023-05-08T18:48:36;17.10;90.80
20858;DHT22;10589;53.636;10.012;2023-05-08T18:51:02;17.00;90.70
20858;DHT22;10589;53.636;10.012;2023-05-08T18:53:28;16.90;91.30
20858;DHT22;10589;53.636;10.012;2023-05-08T18:55:55;16.80;91.70
20858;DHT22;10589;53.636;10.012;2023-05-08T18:58:20;16.60;91.40
20858;DHT22;10589;53.636;10.012;2023-05-08T19:00:46;16.50;91.80
20858;DHT22;10589;53.636;10.012;2023-05-08T19:03:12;16.40;91.80
20858;DHT22;10589;53.636;10.012;2023-05-08T19:05:37;16.40;91.90
20858;DHT22;10589;53.636;10.012;2023-05-08T19:08:05;16.20;93.00
20858;DHT22;10589;53.636;10.012;2023-05-08T19:10:33;16.20;93.10
20858;DHT22;10589;53.636;10.012;2023-05-08T19:12:58;16.10;92.50
20858;DHT22;10589;53.636;10.012;2023-05-08T19:15:26;16.00;93.60
20858;DHT22;10589;53.636;10.012;2023-05-08T19:17:54;15.90;94.00
20858;DHT22;10589;53.636;10.012;2023-05-08T19:20:21;15.90;93.70
20858;DHT22;10589;53.636;10.012;2023-05-08T19:22:46;15.80;94.30
20858;DHT22;10589;53.636;10.012;2023-05-08T19:25:13;15.70;94.20
20858;DHT22;10589;53.636;10.012;2023-05-08T19:27:38;15.60;94.40
20858;DHT22;10589;53.636;10.012;2023-05-08T19:30:04;15.60;94.50
20858;DHT22;10589;53.636;10.012;2023-05-08T19:32:30;15.50;95.00
20858;DHT22;10589;53.636;10.012;2023-05-08T19:35:02;15.50;94.90